createdAt,value
2018-07-08T00:00:06.451Z,82.45
2018-07-08T00:02:34.970Z,82.40
2018-07-08T00:05:03.522Z,82.51
2018-07-08T00:07:32.140Z,81.82
2018-07-08T00:10:00.648Z,82.75
2018-07-08T00:12:29.182Z,82.81
2018-07-08T00:14:57.673Z,82.68
2018-07-08T00:17:26.208Z,83.02
2018-07-08T00:19:54.920Z,83.20
2018-07-08T00:22:23.459Z,83.12
2018-07-08T00:24:51.917Z,82.96
2018-07-08T00:27:20.610Z,82.65
2018-07-08T00:29:49.290Z,83.01
2018-07-08T00:32:17.874Z,83.32
2018-07-08T00:34:46.474Z,83.56
2018-07-08T00:37:15.024Z,83.24
2018-07-08T00:39:43.560Z,83.43
2018-07-08T00:42:12.521Z,83.71
2018-07-08T00:44:41.028Z,83.76
2018-07-08T00:47:09.511Z,84.32
2018-07-08T00:49:38.401Z,84.09
2018-07-08T00:52:07.121Z,83.86
2018-07-08T00:54:35.624Z,84.12
2018-07-08T00:57:04.176Z,83.92
2018-07-08T00:59:32.886Z,84.18
2018-07-08T01:02:01.553Z,84.03
2018-07-08T01:04:30.129Z,83.87
2018-07-08T01:06:58.662Z,84.02
2018-07-08T01:09:27.133Z,83.93
2018-07-08T01:11:55.693Z,84.31
2018-07-08T01:14:24.178Z,84.54
2018-07-08T01:16:52.675Z,84.47
2018-07-08T01:19:21.224Z,84.58
2018-07-08T01:21:49.956Z,84.79
2018-07-08T01:24:18.445Z,84.80
2018-07-08T01:26:46.967Z,85.19
2018-07-08T01:29:15.689Z,84.85
2018-07-08T01:31:44.327Z,85.44
2018-07-08T01:34:12.816Z,85.27
2018-07-08T01:36:41.305Z,85.42
2018-07-08T01:39:10.013Z,85.26
2018-07-08T01:41:38.693Z,85.62
2018-07-08T01:44:07.158Z,85.42
2018-07-08T01:46:35.672Z,85.90
2018-07-08T01:49:04.213Z,85.71
2018-07-08T01:51:32.759Z,85.50
2018-07-08T01:54:01.437Z,85.62
2018-07-08T01:56:29.953Z,85.92
2018-07-08T01:58:58.809Z,85.83
2018-07-08T02:01:27.324Z,85.99
2018-07-08T02:03:55.846Z,86.15
2018-07-08T02:06:24.630Z,86.12
2018-07-08T02:08:53.129Z,86.21
2018-07-08T02:11:21.661Z,85.85
2018-07-08T02:13:50.227Z,86.02
2018-07-08T02:16:18.884Z,86.10
2018-07-08T02:18:47.430Z,86.38
2018-07-08T02:21:16.242Z,86.28
2018-07-08T02:23:45.406Z,86.09
2018-07-08T02:26:13.875Z,86.10
2018-07-08T02:28:42.428Z,86.70
2018-07-08T02:31:10.964Z,86.72
2018-07-08T02:33:39.644Z,86.76
2018-07-08T02:36:08.176Z,86.84
2018-07-08T02:38:36.733Z,86.69
2018-07-08T02:41:05.240Z,86.76
2018-07-08T02:43:33.718Z,86.80
2018-07-08T02:46:02.474Z,86.86
2018-07-08T02:48:31.155Z,86.88
2018-07-08T02:50:59.674Z,86.70
2018-07-08T02:53:28.141Z,86.85
2018-07-08T02:55:56.672Z,86.86
2018-07-08T02:58:25.155Z,86.94
2018-07-08T03:00:53.656Z,86.86
2018-07-08T03:03:22.136Z,86.96
2018-07-08T03:05:50.608Z,86.80
2018-07-08T03:08:19.125Z,86.59
2018-07-08T03:10:47.639Z,86.56
2018-07-08T03:13:16.292Z,86.44
2018-07-08T03:15:44.892Z,86.48
2018-07-08T03:18:13.839Z,86.63
2018-07-08T03:20:42.363Z,86.55
2018-07-08T03:23:10.834Z,86.53
2018-07-08T03:25:39.316Z,86.84
2018-07-08T03:28:07.893Z,86.76
2018-07-08T03:30:36.377Z,86.63
2018-07-08T03:33:05.206Z,86.78
2018-07-08T03:35:33.689Z,86.46
2018-07-08T03:38:02.375Z,86.57
2018-07-08T03:40:30.996Z,86.48
2018-07-08T03:42:59.497Z,86.59
2018-07-08T03:45:28.010Z,86.44
2018-07-08T03:47:56.506Z,86.69
2018-07-08T03:50:24.990Z,86.74
2018-07-08T03:52:53.475Z,86.36
2018-07-08T03:55:22.010Z,86.44
2018-07-08T03:57:50.520Z,86.22
2018-07-08T04:00:19.002Z,86.27
2018-07-08T04:02:47.505Z,86.19
2018-07-08T04:05:16.031Z,86.24
2018-07-08T04:07:44.857Z,86.03
2018-07-08T04:10:13.349Z,86.08
2018-07-08T04:12:43.538Z,84.82
2018-07-08T04:15:12.214Z,82.80
2018-07-08T04:17:40.669Z,81.67
2018-07-08T04:20:09.171Z,81.36
2018-07-08T04:22:37.786Z,81.11
2018-07-08T04:25:06.288Z,81.12
2018-07-08T04:27:34.765Z,81.54
2018-07-08T04:30:03.350Z,80.68
2018-07-08T04:32:31.841Z,80.07
2018-07-08T04:35:00.344Z,79.67
2018-07-08T04:37:28.792Z,80.94
2018-07-08T04:39:57.436Z,81.54
2018-07-08T04:42:25.921Z,80.27
2018-07-08T04:44:54.384Z,81.41
2018-07-08T04:47:22.920Z,82.00
2018-07-08T04:49:51.392Z,82.55
2018-07-08T04:52:19.881Z,82.63
2018-07-08T04:54:48.381Z,82.47
2018-07-08T04:57:16.922Z,82.45
2018-07-08T04:59:45.796Z,82.52
2018-07-08T05:02:14.330Z,82.24
2018-07-08T05:04:42.901Z,81.30
2018-07-08T05:07:11.585Z,79.30
2018-07-08T05:09:40.364Z,75.42
2018-07-08T05:12:08.836Z,72.36
2018-07-08T05:14:37.312Z,70.68
2018-07-08T05:17:05.879Z,68.46
2018-07-08T05:19:34.437Z,66.42
2018-07-08T05:22:02.905Z,68.29
2018-07-08T05:24:31.382Z,67.42
2018-07-08T05:27:00.266Z,67.53
2018-07-08T05:29:28.755Z,66.12
2018-07-08T05:31:57.297Z,67.50
2018-07-08T05:34:25.773Z,66.20
2018-07-08T05:36:54.457Z,65.17
2018-07-08T05:39:22.916Z,65.55
2018-07-08T05:41:51.447Z,65.74
2018-07-08T05:44:20.036Z,64.33
2018-07-08T05:46:48.733Z,63.93
2018-07-08T05:49:17.240Z,63.49
2018-07-08T05:51:45.876Z,65.61
2018-07-08T05:54:14.758Z,61.57
2018-07-08T05:56:43.323Z,62.22
2018-07-08T05:59:12.247Z,62.34
2018-07-08T06:01:40.992Z,61.74
2018-07-08T06:04:09.513Z,61.03
2018-07-08T06:06:38.021Z,60.98
2018-07-08T06:09:07.108Z,59.47
2018-07-08T06:11:35.666Z,61.46
2018-07-08T06:14:04.647Z,61.69
2018-07-08T06:16:33.151Z,62.37
2018-07-08T06:19:01.658Z,61.05
2018-07-08T06:21:30.269Z,61.84
2018-07-08T06:23:58.738Z,60.55
2018-07-08T06:26:27.326Z,61.70
2018-07-08T06:28:55.964Z,60.76
2018-07-08T06:31:24.421Z,60.80
2018-07-08T06:33:52.909Z,58.14
2018-07-08T06:36:21.412Z,59.56
2018-07-08T06:38:49.991Z,57.38
2018-07-08T06:41:18.452Z,59.75
2018-07-08T06:43:46.974Z,57.99
2018-07-08T06:46:15.577Z,62.56
2018-07-08T06:48:44.083Z,65.27
2018-07-08T06:51:12.644Z,65.04
2018-07-08T06:53:41.213Z,65.89
2018-07-08T06:56:09.793Z,61.76
2018-07-08T06:58:38.310Z,59.16
2018-07-08T07:01:07.499Z,59.50
2018-07-08T07:03:36.017Z,60.41
2018-07-08T07:06:04.505Z,60.73
2018-07-08T07:08:33.387Z,62.60
2018-07-08T07:11:01.936Z,62.46
2018-07-08T07:13:30.385Z,62.37
2018-07-08T07:15:59.401Z,61.42
2018-07-08T07:18:27.873Z,61.23
2018-07-08T07:20:56.357Z,61.99
2018-07-08T07:23:25.693Z,61.99
2018-07-08T07:25:54.381Z,63.46
2018-07-08T07:28:22.885Z,63.74
2018-07-08T07:30:51.405Z,62.19
2018-07-08T07:33:19.913Z,64.65
2018-07-08T07:35:48.401Z,63.74
2018-07-08T07:38:17.021Z,64.43
2018-07-08T07:40:45.558Z,64.77
2018-07-08T07:43:14.025Z,63.02
2018-07-08T07:45:42.534Z,64.41
2018-07-08T07:48:11.036Z,63.96
2018-07-08T07:50:39.504Z,61.23
2018-07-08T07:53:07.968Z,60.89
2018-07-08T07:55:36.544Z,62.11
2018-07-08T07:58:05.035Z,61.13
2018-07-08T08:00:33.497Z,61.74
2018-07-08T08:03:01.985Z,61.58
2018-07-08T08:05:30.501Z,60.66
2018-07-08T08:07:59.005Z,61.29
2018-07-08T08:10:27.509Z,61.43
2018-07-08T08:12:55.972Z,61.29
2018-07-08T08:15:24.478Z,60.12
2018-07-08T08:17:52.984Z,60.67
2018-07-08T08:20:21.499Z,60.93
2018-07-08T08:22:50.584Z,60.34
2018-07-08T08:25:19.062Z,60.58
2018-07-08T08:27:47.627Z,61.05
2018-07-08T08:30:16.277Z,61.32
2018-07-08T08:32:44.941Z,60.97
2018-07-08T08:35:17.236Z,61.04
2018-07-08T08:37:51.762Z,59.48
2018-07-08T08:40:21.604Z,58.97
2018-07-08T08:42:50.801Z,58.44
2018-07-08T08:45:20.333Z,58.92
2018-07-08T08:47:48.794Z,58.75
2018-07-08T08:50:17.910Z,59.61
2018-07-08T08:52:46.469Z,59.48
2018-07-08T08:55:15.246Z,59.05
2018-07-08T08:57:43.767Z,57.94
2018-07-08T09:00:15.544Z,56.94
2018-07-08T09:02:44.057Z,56.61
2018-07-08T09:05:12.554Z,56.59
2018-07-08T09:07:41.213Z,55.85
2018-07-08T09:10:09.684Z,56.76
2018-07-08T09:12:38.148Z,57.69
2018-07-08T09:15:06.799Z,56.46
2018-07-08T09:17:35.306Z,56.91
2018-07-08T09:20:03.884Z,58.33
2018-07-08T09:22:32.378Z,57.67
2018-07-08T09:25:00.903Z,57.87
2018-07-08T09:27:29.415Z,56.55
2018-07-08T09:29:57.917Z,56.48
2018-07-08T09:32:26.385Z,56.52
2018-07-08T09:34:54.937Z,55.43
2018-07-08T09:37:23.463Z,54.67
2018-07-08T09:39:51.944Z,55.97
2018-07-08T09:42:20.486Z,54.28
2018-07-08T09:44:48.961Z,54.91
2018-07-08T09:47:17.517Z,54.59
2018-07-08T09:49:46.305Z,53.57
2018-07-08T09:52:14.871Z,53.61
2018-07-08T09:54:43.387Z,51.77
2018-07-08T09:57:11.850Z,52.39
2018-07-08T09:59:40.360Z,52.73
2018-07-08T10:02:08.822Z,53.91
2018-07-08T10:04:37.410Z,52.46
2018-07-08T10:07:05.953Z,52.03
2018-07-08T10:09:34.499Z,53.35
2018-07-08T10:12:03.044Z,52.95
2018-07-08T10:14:31.518Z,52.59
2018-07-08T10:16:59.999Z,53.82
2018-07-08T10:19:28.539Z,52.59
2018-07-08T10:21:57.113Z,52.39
2018-07-08T10:24:25.570Z,51.60
2018-07-08T10:27:45.698Z,51.90
2018-07-08T10:30:14.189Z,49.84
2018-07-08T10:32:42.656Z,50.93
2018-07-08T10:35:21.040Z,49.36
2018-07-08T10:37:49.701Z,49.86
2018-07-08T10:40:18.291Z,50.84
2018-07-08T10:42:46.818Z,50.40
2018-07-08T10:45:15.380Z,50.42
2018-07-08T10:47:43.910Z,48.99
2018-07-08T10:50:12.417Z,49.82
2018-07-08T10:52:40.888Z,50.29
2018-07-08T10:55:09.681Z,50.65
2018-07-08T10:57:38.151Z,50.79
2018-07-08T11:00:06.928Z,50.33
2018-07-08T11:02:35.638Z,49.22
2018-07-08T11:05:04.592Z,49.25
2018-07-08T11:07:33.061Z,50.14
2018-07-08T11:10:01.555Z,50.21
2018-07-08T11:12:30.081Z,49.19
2018-07-08T11:14:58.545Z,49.45
2018-07-08T11:17:27.111Z,50.75
2018-07-08T11:19:55.613Z,50.36
2018-07-08T11:22:24.118Z,49.25
2018-07-08T11:24:52.622Z,50.97
2018-07-08T11:27:21.205Z,48.20
2018-07-08T11:29:49.933Z,47.51
2018-07-08T11:32:18.492Z,49.72
2018-07-08T11:34:47.621Z,50.86
2018-07-08T11:37:17.035Z,48.38
2018-07-08T11:39:45.577Z,47.51
2018-07-08T11:42:14.119Z,47.46
2018-07-08T11:44:42.609Z,46.57
2018-07-08T11:47:11.132Z,48.19
2018-07-08T11:49:39.599Z,48.23
2018-07-08T11:52:08.151Z,48.33
2018-07-08T11:54:36.665Z,46.92
2018-07-08T11:57:05.373Z,47.33
2018-07-08T11:59:33.846Z,44.92
2018-07-08T12:02:02.344Z,45.31
2018-07-08T12:04:30.913Z,46.01
2018-07-08T12:06:59.398Z,46.43
2018-07-08T12:09:27.912Z,46.42
2018-07-08T12:11:56.459Z,46.17
2018-07-08T12:14:25.056Z,46.63
2018-07-08T12:16:53.655Z,45.29
2018-07-08T12:19:22.161Z,45.90
2018-07-08T12:21:50.674Z,46.36
2018-07-08T12:24:19.166Z,47.26
2018-07-08T12:26:47.840Z,48.58
2018-07-08T12:29:16.318Z,48.14
2018-07-08T12:31:44.877Z,47.16
2018-07-08T12:34:13.349Z,46.75
2018-07-08T12:36:41.837Z,44.65
2018-07-08T12:39:12.190Z,45.36
2018-07-08T12:41:41.294Z,44.42
2018-07-08T12:44:10.042Z,44.75
2018-07-08T12:46:39.032Z,44.84
2018-07-08T12:49:07.903Z,43.50
2018-07-08T12:51:36.386Z,42.52
2018-07-08T12:54:05.065Z,43.47
2018-07-08T12:56:33.537Z,44.09
2018-07-08T12:59:02.242Z,44.99
2018-07-08T13:01:30.718Z,45.05
2018-07-08T13:03:59.289Z,44.75
2018-07-08T13:06:27.992Z,44.50
2018-07-08T13:08:56.565Z,44.54
2018-07-08T13:11:25.188Z,44.29
2018-07-08T13:13:53.769Z,45.26
2018-07-08T13:16:22.273Z,46.15
2018-07-08T13:18:50.760Z,46.12
2018-07-08T13:21:19.309Z,44.92
2018-07-08T13:23:47.892Z,43.31
2018-07-08T13:26:16.453Z,43.76
2018-07-08T13:28:44.970Z,44.87
2018-07-08T13:31:13.517Z,45.69
2018-07-08T13:33:42.038Z,45.79
2018-07-08T13:36:10.575Z,46.18
2018-07-08T13:38:39.112Z,45.58
2018-07-08T13:41:07.685Z,45.46
2018-07-08T13:43:36.290Z,44.98
2018-07-08T13:46:04.870Z,45.42
2018-07-08T13:48:33.389Z,44.40
2018-07-08T13:51:01.863Z,44.07
2018-07-08T13:53:30.855Z,44.47
2018-07-08T13:55:59.341Z,44.43
2018-07-08T13:58:27.869Z,45.15
2018-07-08T14:00:56.418Z,44.95
2018-07-08T14:03:24.909Z,45.87
2018-07-08T14:05:53.743Z,45.91
2018-07-08T14:08:22.284Z,45.60
2018-07-08T14:10:50.967Z,44.21
2018-07-08T14:13:19.573Z,44.28
2018-07-08T14:15:48.097Z,44.16
2018-07-08T14:18:16.623Z,42.96
2018-07-08T14:20:45.213Z,42.69
2018-07-08T14:23:13.686Z,43.81
2018-07-08T14:25:42.481Z,44.25
2018-07-08T14:28:11.029Z,43.90
2018-07-08T14:30:39.550Z,44.58
2018-07-08T14:33:08.133Z,45.04
2018-07-08T14:35:36.880Z,44.65
2018-07-08T14:38:05.783Z,44.87
2018-07-08T14:40:34.268Z,43.81
2018-07-08T14:43:02.798Z,43.93
2018-07-08T14:45:31.318Z,44.12
2018-07-08T14:47:59.817Z,43.00
2018-07-08T14:50:28.320Z,44.08
2018-07-08T14:52:56.913Z,44.63
2018-07-08T14:55:25.421Z,44.23
2018-07-08T14:57:53.909Z,43.73
2018-07-08T15:00:22.407Z,43.42
2018-07-08T15:02:50.927Z,44.47
2018-07-08T15:05:19.860Z,44.96
2018-07-08T15:07:48.410Z,45.23
2018-07-08T15:10:16.931Z,45.65
2018-07-08T15:12:50.131Z,45.01
2018-07-08T15:15:18.708Z,45.43
2018-07-08T15:17:47.201Z,44.36
2018-07-08T15:20:15.749Z,44.68
2018-07-08T15:22:44.232Z,44.73
2018-07-08T15:25:12.721Z,45.29
2018-07-08T15:27:41.202Z,46.06
2018-07-08T15:30:09.677Z,45.62
2018-07-08T15:32:38.350Z,45.50
2018-07-08T15:35:06.890Z,45.57
2018-07-08T15:37:35.390Z,45.67
2018-07-08T15:40:03.948Z,45.33
2018-07-08T15:42:32.430Z,45.48
2018-07-08T15:45:00.954Z,45.03
2018-07-08T15:47:29.554Z,45.90
2018-07-08T15:49:58.061Z,46.57
2018-07-08T15:52:26.566Z,46.65
2018-07-08T15:54:55.466Z,47.42
2018-07-08T15:57:24.078Z,47.07
2018-07-08T15:59:52.580Z,45.99
2018-07-08T16:02:21.094Z,45.51
2018-07-08T16:04:49.599Z,45.43
2018-07-08T16:07:18.353Z,46.33
2018-07-08T16:09:46.885Z,46.65
2018-07-08T16:12:15.373Z,47.41
2018-07-08T16:14:43.886Z,46.46
2018-07-08T16:17:12.350Z,45.95
2018-07-08T16:19:40.850Z,46.06
2018-07-08T16:22:09.353Z,46.92
2018-07-08T16:24:37.873Z,46.76
2018-07-08T16:27:06.811Z,46.88
2018-07-08T16:29:35.458Z,46.43
2018-07-08T16:32:03.968Z,45.86
2018-07-08T16:34:32.574Z,46.85
2018-07-08T16:37:01.083Z,46.81
2018-07-08T16:39:29.674Z,46.60
2018-07-08T16:41:58.326Z,47.04
2018-07-08T16:44:26.797Z,45.80
2018-07-08T16:46:55.253Z,45.87
2018-07-08T16:49:23.861Z,46.51
2018-07-08T16:51:52.397Z,46.97
2018-07-08T16:54:20.906Z,46.02
2018-07-08T16:56:50.136Z,46.01
2018-07-08T16:59:18.699Z,46.58
2018-07-08T17:01:47.261Z,46.64
2018-07-08T17:04:15.791Z,47.55
2018-07-08T17:06:44.353Z,47.26
2018-07-08T17:09:12.822Z,47.37
2018-07-08T17:11:41.310Z,47.21
2018-07-08T17:14:09.777Z,47.47
2018-07-08T17:16:38.279Z,47.96
2018-07-08T17:19:06.818Z,47.74
2018-07-08T17:21:35.313Z,47.90
2018-07-08T17:24:03.797Z,48.27
2018-07-08T17:26:32.429Z,48.85
2018-07-08T17:29:00.942Z,48.46
2018-07-08T17:31:29.486Z,48.33
2018-07-08T17:33:58.166Z,47.82
2018-07-08T17:36:26.951Z,48.49
2018-07-08T17:38:55.604Z,48.21
2018-07-08T17:41:24.074Z,48.79
2018-07-08T17:43:52.652Z,48.48
2018-07-08T17:46:21.301Z,48.65
2018-07-08T17:48:51.331Z,48.51
2018-07-08T17:51:20.018Z,48.77
2018-07-08T17:53:48.553Z,49.37
2018-07-08T17:56:17.080Z,48.75
2018-07-08T17:58:45.638Z,47.86
2018-07-08T18:01:14.137Z,46.17
2018-07-08T18:03:42.687Z,45.70
2018-07-08T18:06:11.206Z,45.33
2018-07-08T18:08:39.774Z,43.78
2018-07-08T18:11:08.434Z,44.83
2018-07-08T18:13:36.941Z,44.37
2018-07-08T18:16:06.288Z,43.25
2018-07-08T18:18:35.586Z,43.17
2018-07-08T18:21:04.776Z,43.50
2018-07-08T18:23:33.347Z,43.78
2018-07-08T18:26:01.837Z,45.47
2018-07-08T18:28:30.335Z,47.59
2018-07-08T18:30:58.868Z,49.11
2018-07-08T18:33:27.432Z,48.97
2018-07-08T18:35:56.309Z,49.99
2018-07-08T18:38:24.824Z,50.23
2018-07-08T18:40:53.370Z,50.78
2018-07-08T18:43:22.309Z,51.42
2018-07-08T18:45:50.949Z,51.82
2018-07-08T18:48:19.623Z,51.98
2018-07-08T18:50:48.127Z,52.30
2018-07-08T18:53:17.355Z,53.16
2018-07-08T18:55:45.837Z,53.62
2018-07-08T18:58:14.340Z,53.92
2018-07-08T19:00:43.302Z,54.10
2018-07-08T19:03:12.549Z,53.48
2018-07-08T19:05:41.154Z,53.49
2018-07-08T19:08:09.829Z,54.06
2018-07-08T19:10:38.306Z,53.98
2018-07-08T19:13:07.084Z,54.35
2018-07-08T19:15:35.569Z,54.66
2018-07-08T19:18:05.043Z,54.98
2018-07-08T19:20:33.513Z,54.91
2018-07-08T19:23:02.164Z,55.24
2018-07-08T19:25:30.781Z,55.99
2018-07-08T19:27:59.337Z,56.03
2018-07-08T19:30:27.856Z,55.68
2018-07-08T19:32:56.369Z,54.53
2018-07-08T19:35:24.848Z,56.16
2018-07-08T19:37:53.441Z,57.25
2018-07-08T19:40:22.012Z,57.73
2018-07-08T19:42:50.480Z,58.70
2018-07-08T19:45:19.019Z,59.00
2018-07-08T19:47:47.608Z,59.36
2018-07-08T19:50:16.139Z,59.76
2018-07-08T19:52:44.650Z,60.41
2018-07-08T19:55:13.165Z,60.89
2018-07-08T19:57:41.649Z,61.11
2018-07-08T20:00:10.124Z,61.68
2018-07-08T20:02:38.640Z,61.76
2018-07-08T20:05:07.148Z,61.68
2018-07-08T20:07:35.680Z,62.52
2018-07-08T20:10:04.352Z,62.20
2018-07-08T20:12:32.825Z,63.30
2018-07-08T20:15:02.218Z,63.40
2018-07-08T20:17:30.742Z,63.63
2018-07-08T20:19:59.314Z,63.99
2018-07-08T20:22:27.785Z,64.52
2018-07-08T20:24:56.354Z,65.06
2018-07-08T20:27:24.879Z,64.73
2018-07-08T20:29:53.450Z,65.20
2018-07-08T20:32:22.055Z,65.93
2018-07-08T20:34:50.697Z,66.14
2018-07-08T20:37:19.260Z,66.78
2018-07-08T20:39:48.144Z,67.26
2018-07-08T20:42:16.636Z,67.31
2018-07-08T20:44:45.271Z,68.34
2018-07-08T20:47:13.780Z,67.79
2018-07-08T20:49:42.264Z,68.09
2018-07-08T20:52:10.750Z,68.88
2018-07-08T20:54:39.277Z,68.96
2018-07-08T20:57:07.770Z,69.14
2018-07-08T20:59:36.301Z,69.39
2018-07-08T21:02:04.897Z,69.35
2018-07-08T21:04:33.546Z,70.57
2018-07-08T21:07:02.189Z,70.53
2018-07-08T21:09:30.721Z,70.68
2018-07-08T21:11:59.180Z,71.24
2018-07-08T21:14:27.881Z,71.27
2018-07-08T21:16:56.398Z,71.52
2018-07-08T21:19:24.906Z,71.83
2018-07-08T21:21:53.471Z,72.16
2018-07-08T21:24:21.977Z,72.49
2018-07-08T21:26:50.486Z,72.71
2018-07-08T21:29:19.030Z,72.86
2018-07-08T21:31:47.506Z,72.90
2018-07-08T21:34:16.026Z,72.65
2018-07-08T21:36:44.571Z,73.03
2018-07-08T21:39:13.255Z,73.54
2018-07-08T21:41:42.440Z,73.98
2018-07-08T21:44:10.914Z,74.06
2018-07-08T21:46:39.748Z,74.82
2018-07-08T21:49:08.241Z,74.87
2018-07-08T21:51:36.737Z,74.73
2018-07-08T21:54:05.442Z,74.98
2018-07-08T21:56:33.931Z,75.31
2018-07-08T21:59:02.438Z,75.95
2018-07-08T22:01:36.913Z,76.10
2018-07-08T22:04:06.170Z,76.49
2018-07-08T22:06:34.629Z,76.77
2018-07-08T22:09:03.293Z,77.04
2018-07-08T22:11:31.797Z,77.27
2018-07-08T22:14:00.288Z,77.45
2018-07-08T22:16:28.939Z,77.46
2018-07-08T22:18:57.501Z,78.29
2018-07-08T22:21:25.965Z,78.02
2018-07-08T22:23:54.452Z,78.40
2018-07-08T22:26:22.961Z,78.94
2018-07-08T22:28:51.786Z,79.03
2018-07-08T22:31:20.458Z,79.02
2018-07-08T22:33:48.978Z,79.09
2018-07-08T22:36:17.475Z,79.57
2018-07-08T22:38:46.077Z,80.00
2018-07-08T22:41:14.566Z,80.30
2018-07-08T22:43:43.103Z,80.31
2018-07-08T22:46:11.828Z,80.03
2018-07-08T22:48:40.310Z,80.13
2018-07-08T22:51:08.761Z,80.16
2018-07-08T22:53:37.833Z,80.42
2018-07-08T22:56:06.354Z,80.64
2018-07-08T22:58:34.866Z,80.95
2018-07-08T23:01:14.449Z,81.37
2018-07-08T23:03:45.122Z,80.82
2018-07-08T23:06:13.608Z,81.44
2018-07-08T23:08:42.104Z,82.14
2018-07-08T23:11:11.008Z,82.03
2018-07-08T23:13:39.573Z,82.14
2018-07-08T23:16:08.352Z,81.97
2018-07-08T23:18:36.893Z,82.97
2018-07-08T23:21:05.666Z,83.65
2018-07-08T23:23:34.248Z,83.38
2018-07-08T23:26:02.853Z,83.99
2018-07-08T23:28:32.378Z,83.54
2018-07-08T23:31:00.922Z,83.86
2018-07-08T23:33:29.801Z,84.18
2018-07-08T23:35:58.295Z,84.20
2018-07-08T23:38:27.024Z,83.86
2018-07-08T23:40:55.554Z,83.83
2018-07-08T23:43:24.153Z,83.92
2018-07-08T23:45:52.740Z,83.86
2018-07-08T23:48:21.235Z,83.90
2018-07-08T23:50:49.880Z,83.84
2018-07-08T23:53:18.442Z,83.79
2018-07-08T23:55:47.327Z,83.83
2018-07-08T23:58:15.786Z,84.24
